Time;durP1;ratioP1;P1;durP2;ratioP2;P2;SDS_P1;SDS_P2;PMS_P1;PMS_P2;Temp;Humidity;BMP_temperature;BMP_pressure;BME280_temperature;BME280_humidity;BME280_pressure;Samples;Min_cycle;Max_cycle;Signal;HPM_P1;HPM_P2
2023/05/14 00:00:17;;;;;;;6.32;5.82;;;15.00;64.10;;;;;;5008916;28;20109;-47
2023/05/14 00:02:44;;;;;;;6.60;6.10;;;15.00;64.30;;;;;;5008913;28;20045;-42
2023/05/14 00:05:13;;;;;;;6.03;5.53;;;15.00;64.40;;;;;;5004357;28;20092;-44
2023/05/14 00:07:40;;;;;;;7.57;6.18;;;15.00;64.60;;;;;;5011030;28;20046;-43
2023/05/14 00:10:07;;;;;;;6.30;5.70;;;15.00;64.70;;;;;;5012880;28;20056;-43
2023/05/14 00:12:34;;;;;;;5.72;5.32;;;15.00;64.70;;;;;;5011834;28;20034;-46
2023/05/14 00:15:03;;;;;;;6.22;5.78;;;15.00;64.70;;;;;;5007260;28;20552;-44
2023/05/14 00:17:32;;;;;;;7.00;6.35;;;15.10;64.70;;;;;;5013227;28;20608;-44
2023/05/14 00:19:59;;;;;;;5.93;5.40;;;15.10;64.70;;;;;;5012195;28;20076;-44
2023/05/14 00:22:25;;;;;;;6.00;5.40;;;15.10;64.70;;;;;;5011698;28;20049;-42
2023/05/14 00:24:52;;;;;;;8.63;7.55;;;15.10;64.70;;;;;;5011960;28;20044;-46
2023/05/14 00:27:22;;;;;;;9.27;8.48;;;15.20;65.30;;;;;;5012122;28;20128;-44
2023/05/14 00:29:50;;;;;;;7.55;6.95;;;15.20;65.80;;;;;;5012593;28;20046;-41
2023/05/14 00:32:16;;;;;;;7.88;7.18;;;15.20;65.70;;;;;;4994004;28;20045;-43
2023/05/14 00:34:44;;;;;;;8.02;7.28;;;15.20;65.50;;;;;;5011866;28;20042;-42
2023/05/14 00:37:13;;;;;;;7.95;7.28;;;15.20;65.40;;;;;;4996002;28;20830;-44
2023/05/14 00:39:42;;;;;;;8.18;7.45;;;15.30;65.20;;;;;;4994895;28;20087;-45
2023/05/14 00:42:08;;;;;;;7.43;6.80;;;15.30;65.10;;;;;;4991718;28;20532;-43
2023/05/14 00:44:38;;;;;;;6.97;6.38;;;15.30;65.00;;;;;;4994675;28;20050;-42
2023/05/14 00:47:14;;;;;;;7.82;7.13;;;15.30;65.10;;;;;;5011809;28;20565;-44
2023/05/14 00:49:42;;;;;;;6.90;6.40;;;15.30;64.80;;;;;;4995133;28;20056;-45
2023/05/14 00:52:10;;;;;;;7.38;6.70;;;15.30;64.60;;;;;;5011746;28;20122;-45
2023/05/14 00:54:39;;;;;;;7.50;6.90;;;15.20;64.60;;;;;;4992125;28;20077;-43
2023/05/14 00:57:08;;;;;;;7.57;6.97;;;15.20;64.50;;;;;;5007960;28;20159;-44
2023/05/14 00:59:40;;;;;;;6.82;6.22;;;15.20;64.50;;;;;;5012346;28;20105;-43
2023/05/14 01:02:09;;;;;;;8.13;7.43;;;15.20;64.50;;;;;;4994376;28;20376;-43
2023/05/14 01:04:39;;;;;;;8.07;7.38;;;15.20;64.50;;;;;;5010760;28;20038;-43
2023/05/14 01:07:22;;;;;;;7.70;7.00;;;15.10;64.30;;;;;;4994596;28;20060;-45
2023/05/14 01:09:58;;;;;;;6.60;6.10;;;15.10;64.70;;;;;;4994788;28;20445;-45
2023/05/14 01:12:34;;;;;;;6.95;6.32;;;15.10;64.20;;;;;;5004458;28;20042;-42
2023/05/14 01:15:25;;;;;;;7.63;6.95;;;15.10;64.10;;;;;;4990691;28;22348;-43
2023/05/14 01:18:03;;;;;;;7.57;6.90;;;15.00;64.20;;;;;;5010687;28;20080;-44
2023/05/14 01:20:30;;;;;;;7.45;6.50;;;15.00;63.60;;;;;;5010449;28;20076;-44
2023/05/14 01:22:56;;;;;;;8.40;7.70;;;14.90;63.70;;;;;;4994141;28;20057;-44
2023/05/14 01:25:23;;;;;;;7.85;7.15;;;14.80;64.30;;;;;;4991575;28;20688;-42
2023/05/14 01:28:10;;;;;;;7.43;6.85;;;14.80;64.10;;;;;;5012368;28;20038;-45
2023/05/14 01:30:43;;;;;;;8.02;7.18;;;14.80;64.30;;;;;;5010850;28;20128;-44
2023/05/14 01:33:18;;;;;;;8.05;7.38;;;14.70;64.00;;;;;;4994200;28;20050;-46
2023/05/14 01:35:52;;;;;;;9.73;8.93;;;14.70;64.30;;;;;;5010575;28;20042;-44
2023/05/14 01:38:20;;;;;;;8.05;7.43;;;14.60;64.20;;;;;;5004737;28;20060;-42
2023/05/14 01:40:49;;;;;;;10.48;9.57;;;14.60;64.20;;;;;;5010454;28;20061;-44
2023/05/14 01:43:18;;;;;;;12.68;10.68;;;14.50;64.80;;;;;;4993696;28;20042;-46
2023/05/14 01:45:45;;;;;;;12.68;11.35;;;14.50;65.70;;;;;;5009307;28;20037;-46
2023/05/14 01:48:14;;;;;;;13.13;11.90;;;14.50;65.90;;;;;;5011946;28;20096;-43
2023/05/14 01:50:41;;;;;;;13.23;11.93;;;14.50;66.50;;;;;;5010824;28;20517;-43
2023/05/14 01:53:08;;;;;;;12.68;11.38;;;14.50;66.50;;;;;;5009976;28;20453;-48
2023/05/14 01:55:37;;;;;;;12.35;11.25;;;14.50;66.70;;;;;;4997325;28;20096;-43
2023/05/14 01:58:07;;;;;;;11.45;10.45;;;14.40;66.50;;;;;;5008754;28;20042;-43
2023/05/14 02:00:33;;;;;;;11.95;10.85;;;14.50;66.40;;;;;;4992974;28;20513;-43
2023/05/14 02:03:05;;;;;;;11.77;10.63;;;14.50;66.40;;;;;;5010573;28;20437;-47
2023/05/14 02:05:32;;;;;;;12.57;11.38;;;14.50;66.60;;;;;;5010490;28;20088;-43
2023/05/14 02:07:58;;;;;;;11.20;10.18;;;14.50;66.40;;;;;;5011567;28;20466;-47
2023/05/14 02:10:26;;;;;;;10.20;9.30;;;14.40;66.10;;;;;;5010096;28;20120;-44
2023/05/14 02:12:56;;;;;;;10.68;9.50;;;14.50;66.50;;;;;;5010648;28;20052;-44
2023/05/14 02:15:25;;;;;;;10.48;9.43;;;14.40;65.60;;;;;;4982671;28;20050;-44
2023/05/14 02:17:52;;;;;;;11.90;10.70;;;14.40;65.80;;;;;;5009039;28;20038;-44
2023/05/14 02:20:19;;;;;;;10.23;9.32;;;14.40;65.80;;;;;;5008816;28;20049;-42
2023/05/14 02:22:46;;;;;;;10.00;9.05;;;14.30;65.60;;;;;;5009894;28;20476;-43
2023/05/14 02:25:14;;;;;;;9.75;8.88;;;14.50;65.60;;;;;;4986850;28;20137;-42
2023/05/14 02:27:43;;;;;;;10.25;9.35;;;14.30;65.30;;;;;;4993591;28;20038;-43
2023/05/14 02:30:11;;;;;;;10.38;9.38;;;14.30;65.10;;;;;;4992866;28;20052;-42
2023/05/14 02:32:42;;;;;;;9.55;8.65;;;14.20;65.00;;;;;;4990154;28;20030;-43
2023/05/14 02:35:09;;;;;;;9.48;8.68;;;14.20;64.90;;;;;;4992065;28;20054;-43
2023/05/14 02:37:40;;;;;;;8.55;7.75;;;14.20;64.80;;;;;;5011086;28;20045;-43
2023/05/14 02:40:09;;;;;;;8.95;8.05;;;14.20;64.60;;;;;;4992232;28;20042;-44
2023/05/14 02:42:36;;;;;;;8.93;8.02;;;14.10;64.40;;;;;;4990274;28;20049;-44
2023/05/14 02:45:03;;;;;;;8.60;7.88;;;14.00;64.30;;;;;;5008743;28;20048;-47
2023/05/14 02:47:29;;;;;;;8.40;7.70;;;14.00;64.20;;;;;;4996375;28;20049;-45
2023/05/14 02:49:59;;;;;;;8.45;7.65;;;14.00;64.20;;;;;;4992887;28;20064;-44
2023/05/14 02:52:28;;;;;;;8.30;7.55;;;13.90;64.30;;;;;;5008905;28;20041;-44
2023/05/14 02:55:00;;;;;;;8.85;8.02;;;13.90;64.10;;;;;;5004527;28;20030;-44
2023/05/14 02:57:26;;;;;;;9.30;8.50;;;13.80;64.10;;;;;;5001529;28;20034;-42
2023/05/14 02:59:53;;;;;;;8.18;7.47;;;13.80;64.00;;;;;;5010716;28;20033;-43
2023/05/14 03:02:20;;;;;;;9.23;8.02;;;13.70;64.00;;;;;;4990082;28;20054;-44
2023/05/14 03:04:53;;;;;;;10.00;9.10;;;13.70;63.90;;;;;;4992170;28;20068;-47
2023/05/14 03:07:20;;;;;;;9.70;8.80;;;13.60;63.90;;;;;;4992467;28;20129;-44
2023/05/14 03:09:49;;;;;;;12.18;10.98;;;13.60;64.20;;;;;;4990792;28;20678;-45
2023/05/14 03:12:23;;;;;;;13.20;11.85;;;13.60;65.10;;;;;;4996513;28;20522;-44
2023/05/14 03:14:50;;;;;;;12.43;11.17;;;13.50;66.20;;;;;;5008501;28;20033;-47
2023/05/14 03:17:19;;;;;;;12.02;11.00;;;13.50;66.20;;;;;;4997347;28;20050;-44
2023/05/14 03:19:46;;;;;;;11.50;10.30;;;13.50;66.30;;;;;;5010265;28;20038;-44
2023/05/14 03:22:12;;;;;;;11.38;10.40;;;13.50;66.00;;;;;;5006680;28;20525;-44
2023/05/14 03:24:42;;;;;;;10.52;9.63;;;13.50;65.80;;;;;;4991268;28;20042;-45
2023/05/14 03:27:09;;;;;;;11.48;10.48;;;13.50;65.80;;;;;;4991464;28;20050;-44
2023/05/14 03:29:37;;;;;;;11.32;10.35;;;13.50;65.90;;;;;;5009540;28;20042;-44
2023/05/14 03:32:06;;;;;;;11.18;10.15;;;13.50;65.90;;;;;;5009544;28;20168;-44
2023/05/14 03:34:33;;;;;;;10.63;9.63;;;13.50;65.90;;;;;;4991697;28;20116;-46
2023/05/14 03:37:00;;;;;;;11.15;10.15;;;13.50;65.90;;;;;;4991708;28;20132;-44
2023/05/14 03:39:29;;;;;;;11.00;9.95;;;13.50;66.70;;;;;;5009825;28;20037;-44
2023/05/14 03:41:58;;;;;;;10.77;9.73;;;13.50;66.30;;;;;;5009406;28;20060;-43
2023/05/14 03:44:28;;;;;;;11.05;9.95;;;13.50;66.20;;;;;;4990914;28;20081;-43
2023/05/14 03:46:58;;;;;;;11.43;10.43;;;13.60;66.50;;;;;;4986777;28;20057;-43
2023/05/14 03:49:25;;;;;;;12.52;10.43;;;13.60;66.50;;;;;;5009609;28;20026;-43
2023/05/14 03:51:54;;;;;;;10.77;9.77;;;13.60;66.40;;;;;;4991463;28;20405;-44
2023/05/14 03:54:20;;;;;;;10.38;9.32;;;13.60;66.20;;;;;;5007226;28;20098;-45
2023/05/14 03:56:47;;;;;;;10.63;9.70;;;13.60;66.00;;;;;;5009886;28;20504;-43
2023/05/14 03:59:14;;;;;;;10.95;9.98;;;13.60;65.80;;;;;;4991777;28;20050;-42
2023/05/14 04:01:44;;;;;;;10.75;9.75;;;13.60;65.70;;;;;;4991041;28;20049;-44
2023/05/14 04:04:11;;;;;;;10.07;9.18;;;13.60;65.60;;;;;;4995709;28;20050;-45
2023/05/14 04:06:40;;;;;;;9.48;8.57;;;13.50;65.40;;;;;;5009313;28;20042;-42
2023/05/14 04:09:09;;;;;;;10.50;9.13;;;13.50;65.40;;;;;;5008671;28;20104;-42
2023/05/14 04:11:38;;;;;;;8.30;7.60;;;13.50;65.40;;;;;;4986153;28;20048;-44
2023/05/14 04:14:05;;;;;;;9.73;8.75;;;13.50;65.30;;;;;;4990491;28;20045;-44
2023/05/14 04:16:35;;;;;;;9.93;9.02;;;13.50;65.20;;;;;;5003525;28;20502;-43
2023/05/14 04:19:04;;;;;;;9.40;8.57;;;13.40;65.10;;;;;;5006752;28;20076;-47
2023/05/14 04:21:31;;;;;;;10.45;9.45;;;13.40;65.20;;;;;;4999591;28;20058;-43
2023/05/14 04:24:03;;;;;;;9.85;8.95;;;13.40;65.30;;;;;;5009388;28;20569;-42
2023/05/14 04:26:30;;;;;;;9.80;8.98;;;13.40;65.30;;;;;;5008308;28;20510;-45
2023/05/14 04:29:01;;;;;;;13.45;9.35;;;13.40;65.40;;;;;;5008784;28;20052;-44
2023/05/14 04:31:32;;;;;;;10.13;9.15;;;13.30;65.60;;;;;;5008413;28;20038;-46
2023/05/14 04:34:01;;;;;;;10.55;9.38;;;13.30;65.60;;;;;;5008708;28;20072;-46
2023/05/14 04:36:31;;;;;;;10.07;8.80;;;13.30;65.80;;;;;;5009116;28;20038;-47
2023/05/14 04:39:02;;;;;;;10.50;9.60;;;13.30;65.70;;;;;;5050102;22;20114;-43
2023/05/14 04:41:33;;;;;;;10.05;9.25;;;13.30;65.90;;;;;;5067091;28;20036;-44
2023/05/14 04:44:00;;;;;;;9.23;8.43;;;13.30;65.90;;;;;;5060038;28;20049;-43
2023/05/14 04:46:29;;;;;;;10.30;9.40;;;13.40;65.90;;;;;;5057968;28;20045;-44
2023/05/14 04:49:01;;;;;;;10.05;9.05;;;13.40;66.30;;;;;;5045516;28;20048;-43
2023/05/14 04:51:30;;;;;;;9.93;8.80;;;13.40;66.30;;;;;;5048912;28;20049;-43
2023/05/14 04:53:57;;;;;;;10.85;9.85;;;13.40;66.20;;;;;;5048671;28;20410;-43
2023/05/14 04:56:26;;;;;;;9.02;8.23;;;13.40;66.40;;;;;;5051884;28;20456;-44
2023/05/14 04:58:54;;;;;;;9.93;8.95;;;13.40;66.50;;;;;;5053199;28;20644;-43
2023/05/14 05:01:22;;;;;;;9.98;8.98;;;13.40;66.50;;;;;;5051777;28;20124;-43
2023/05/14 05:03:53;;;;;;;9.88;8.90;;;13.40;66.60;;;;;;5027616;28;20091;-43
2023/05/14 05:06:20;;;;;;;10.20;9.32;;;13.40;66.60;;;;;;5052117;28;20045;-43
2023/05/14 05:08:47;;;;;;;10.15;9.35;;;13.40;66.70;;;;;;5052798;28;20040;-43
2023/05/14 05:11:13;;;;;;;10.90;9.90;;;13.40;66.80;;;;;;5048041;28;20774;-43
2023/05/14 05:13:40;;;;;;;10.63;9.73;;;13.40;67.50;;;;;;5052572;28;20040;-43
2023/05/14 05:16:07;;;;;;;11.15;10.15;;;13.50;67.10;;;;;;5054129;28;20545;-45
2023/05/14 05:18:35;;;;;;;11.38;10.35;;;13.50;67.10;;;;;;5049019;28;20043;-43
2023/05/14 05:21:02;;;;;;;12.85;11.65;;;13.50;67.30;;;;;;5049990;28;20501;-43
2023/05/14 05:23:32;;;;;;;13.07;11.88;;;13.60;67.60;;;;;;5052075;28;20056;-44
2023/05/14 05:25:58;;;;;;;11.90;10.90;;;13.60;67.90;;;;;;5051061;28;20060;-44
2023/05/14 05:28:28;;;;;;;11.73;10.63;;;13.60;67.70;;;;;;5052103;28;21029;-42
2023/05/14 05:30:55;;;;;;;12.13;11.02;;;13.70;68.40;;;;;;5050860;28;20048;-42
2023/05/14 05:33:22;;;;;;;12.85;11.43;;;13.70;67.80;;;;;;5051813;28;20080;-43
2023/05/14 05:35:53;;;;;;;14.60;13.30;;;13.70;67.90;;;;;;5051180;28;20048;-43
2023/05/14 05:38:21;;;;;;;;;;;13.70;68.60;;;;;;5051470;28;20603;-44
2023/05/14 05:40:48;;;;;;;11.73;10.65;;;13.80;68.90;;;;;;5051045;28;19928;-44
2023/05/14 05:43:14;;;;;;;12.85;11.57;;;13.90;68.10;;;;;;5051064;28;20468;-43
2023/05/14 05:45:46;;;;;;;14.30;12.98;;;13.90;68.60;;;;;;5050226;28;20072;-43
2023/05/14 05:48:17;;;;;;;16.52;14.88;;;14.00;69.10;;;;;;5052388;28;20098;-43
2023/05/14 05:50:46;;;;;;;15.27;13.75;;;14.00;69.50;;;;;;5051550;28;20119;-44
2023/05/14 05:53:13;;;;;;;15.48;13.90;;;14.10;69.90;;;;;;5050713;28;20044;-42
2023/05/14 05:55:41;;;;;;;15.75;14.15;;;14.20;70.00;;;;;;5050271;28;20794;-44
2023/05/14 05:58:14;;;;;;;15.75;14.25;;;14.20;70.20;;;;;;5052407;28;20505;-43
2023/05/14 06:00:46;;;;;;;16.17;14.50;;;14.30;70.40;;;;;;5049578;28;20048;-44
2023/05/14 06:03:13;;;;;;;16.05;14.52;;;14.40;70.50;;;;;;5050076;28;20049;-43
2023/05/14 06:05:40;;;;;;;17.15;15.38;;;14.50;70.80;;;;;;5049798;28;20045;-44
2023/05/14 06:08:09;;;;;;;17.08;15.48;;;14.50;70.90;;;;;;5049478;28;20623;-44
2023/05/14 06:10:36;;;;;;;17.45;15.75;;;14.60;70.90;;;;;;5050097;28;20045;-44
2023/05/14 06:13:05;;;;;;;17.95;16.25;;;14.70;71.20;;;;;;5050019;28;20056;-44
2023/05/14 06:15:34;;;;;;;18.25;16.35;;;14.80;71.30;;;;;;5051707;28;20087;-44
2023/05/14 06:18:10;;;;;;;18.08;16.23;;;14.80;71.20;;;;;;5049799;28;20128;-43
2023/05/14 06:20:37;;;;;;;18.08;16.33;;;14.90;71.20;;;;;;5039065;28;20428;-45
2023/05/14 06:23:07;;;;;;;16.92;15.23;;;15.00;70.80;;;;;;5049965;28;20047;-44
2023/05/14 06:25:33;;;;;;;16.75;15.20;;;15.10;70.80;;;;;;5047912;28;20052;-54
2023/05/14 06:28:03;;;;;;;17.33;15.63;;;15.20;70.50;;;;;;5029781;28;20064;-56
2023/05/14 06:30:30;;;;;;;19.98;15.80;;;15.20;70.30;;;;;;5044783;28;20501;-56
2023/05/14 06:32:57;;;;;;;18.67;15.70;;;15.30;70.10;;;;;;5047093;28;20410;-52
2023/05/14 06:35:23;;;;;;;16.80;15.07;;;15.30;69.70;;;;;;5048020;28;20556;-52
2023/05/14 06:37:50;;;;;;;17.80;15.90;;;15.40;69.50;;;;;;5049523;28;20037;-56
2023/05/14 06:40:17;;;;;;;18.52;15.30;;;15.40;69.50;;;;;;5049564;28;20047;-56
2023/05/14 06:42:44;;;;;;;17.92;15.30;;;15.50;69.00;;;;;;5049438;28;20036;-52
2023/05/14 06:45:11;;;;;;;16.35;14.70;;;15.50;68.70;;;;;;5034536;28;20044;-55
2023/05/14 06:47:37;;;;;;;16.42;14.80;;;15.60;68.70;;;;;;5047800;28;20516;-56
2023/05/14 06:50:04;;;;;;;17.60;15.90;;;15.60;68.40;;;;;;5050126;28;20037;-56
2023/05/14 06:52:31;;;;;;;18.98;16.90;;;15.70;68.50;;;;;;5047618;28;20048;-56
2023/05/14 06:54:57;;;;;;;18.80;16.95;;;15.70;68.60;;;;;;5023726;28;20049;-56
2023/05/14 06:57:24;;;;;;;21.23;18.10;;;15.80;68.40;;;;;;5047816;28;20056;-51
2023/05/14 06:59:51;;;;;;;18.63;16.70;;;15.80;67.80;;;;;;5043802;28;20062;-55
2023/05/14 07:02:17;;;;;;;18.83;16.88;;;15.90;67.20;;;;;;5031551;28;20053;-57
2023/05/14 07:04:44;;;;;;;19.58;17.23;;;15.90;67.20;;;;;;5046528;28;20051;-55
2023/05/14 07:07:14;;;;;;;19.33;17.33;;;16.00;67.50;;;;;;5048636;28;20102;-52
2023/05/14 07:09:41;;;;;;;17.90;16.20;;;16.10;67.80;;;;;;5034405;28;20083;-56
2023/05/14 07:12:08;;;;;;;21.02;17.27;;;16.10;67.60;;;;;;5048776;28;20055;-56
2023/05/14 07:14:34;;;;;;;17.80;16.00;;;16.10;68.00;;;;;;5048231;28;20049;-55
2023/05/14 07:17:01;;;;;;;18.30;16.40;;;16.20;67.90;;;;;;5044170;28;20048;-56
2023/05/14 07:19:28;;;;;;;18.80;17.02;;;16.20;67.90;;;;;;5048474;28;20452;-55
2023/05/14 07:21:56;;;;;;;19.95;15.82;;;16.30;68.00;;;;;;5048391;28;20045;-56
2023/05/14 07:24:23;;;;;;;19.50;17.65;;;16.30;68.00;;;;;;5048489;28;20447;-55
2023/05/14 07:26:53;;;;;;;18.95;16.88;;;16.30;68.10;;;;;;5048567;28;20041;-55
2023/05/14 07:29:19;;;;;;;18.77;16.88;;;16.40;68.50;;;;;;5031275;28;20048;-57
2023/05/14 07:31:46;;;;;;;19.15;16.83;;;16.50;69.00;;;;;;5046542;28;20052;-56
2023/05/14 07:34:13;;;;;;;19.05;17.17;;;16.50;69.20;;;;;;5048274;28;20049;-56
2023/05/14 07:36:40;;;;;;;20.35;18.17;;;16.60;69.20;;;;;;5049208;28;20041;-55
2023/05/14 07:39:07;;;;;;;19.10;17.08;;;16.60;68.90;;;;;;5048107;28;20052;-53
2023/05/14 07:41:34;;;;;;;19.63;17.00;;;16.70;69.60;;;;;;5038065;28;20414;-56
2023/05/14 07:44:03;;;;;;;18.65;16.80;;;16.80;69.80;;;;;;5047761;28;20071;-56
2023/05/14 07:46:30;;;;;;;18.92;16.95;;;16.90;69.90;;;;;;5047293;28;20128;-55
2023/05/14 07:48:57;;;;;;;18.63;16.65;;;17.00;69.50;;;;;;5047823;28;20048;-57
2023/05/14 07:51:27;;;;;;;18.65;16.60;;;17.10;69.90;;;;;;5042208;28;20049;-57
2023/05/14 07:53:54;;;;;;;16.83;15.15;;;17.20;69.50;;;;;;5047070;28;20090;-53
2023/05/14 07:56:21;;;;;;;19.25;16.88;;;17.20;69.60;;;;;;5049361;28;20064;-57
2023/05/14 07:58:51;;;;;;;18.48;16.58;;;17.30;69.70;;;;;;5048113;28;20033;-55
2023/05/14 08:01:17;;;;;;;21.52;17.20;;;17.40;69.60;;;;;;5050497;28;20045;-56
2023/05/14 08:03:45;;;;;;;16.02;14.32;;;17.40;69.00;;;;;;5040699;28;20045;-56
2023/05/14 08:06:14;;;;;;;18.30;16.42;;;17.50;68.10;;;;;;5049285;28;20555;-56
2023/05/14 08:08:43;;;;;;;16.05;14.38;;;17.60;68.10;;;;;;5049053;28;20056;-55
2023/05/14 08:11:10;;;;;;;14.93;13.20;;;17.60;67.20;;;;;;5050279;28;20057;-60
2023/05/14 08:13:47;;;;;;;;;;;17.70;66.60;;;;;;5049210;28;20068;-57
2023/05/14 08:16:17;;;;;;;15.03;13.30;;;17.80;66.70;;;;;;5028295;28;20015;-55
2023/05/14 08:18:49;;;;;;;15.18;13.77;;;17.90;65.90;;;;;;5048678;28;20405;-57
2023/05/14 08:21:15;;;;;;;17.70;15.27;;;17.90;65.80;;;;;;5049330;28;20103;-53
2023/05/14 08:23:45;;;;;;;16.52;14.80;;;17.90;65.80;;;;;;5049144;28;20460;-57
2023/05/14 08:26:11;;;;;;;15.38;13.85;;;18.00;65.50;;;;;;5048750;28;20795;-57
2023/05/14 08:28:38;;;;;;;14.88;13.38;;;18.00;65.20;;;;;;5049974;28;20064;-55
2023/05/14 08:31:04;;;;;;;15.18;13.65;;;18.00;65.30;;;;;;5053592;28;20044;-56
2023/05/14 08:33:31;;;;;;;15.73;14.20;;;18.10;65.70;;;;;;5052546;28;20123;-53
2023/05/14 08:35:59;;;;;;;15.18;13.70;;;18.10;64.80;;;;;;5053115;28;20045;-53
2023/05/14 08:38:27;;;;;;;15.23;13.63;;;18.20;64.70;;;;;;5051297;28;20452;-56
2023/05/14 08:40:58;;;;;;;15.98;13.55;;;18.30;64.80;;;;;;5053892;28;20055;-54
2023/05/14 08:43:29;;;;;;;16.15;14.45;;;18.40;64.80;;;;;;5052028;28;20057;-55
2023/05/14 08:46:00;;;;;;;16.83;15.15;;;18.40;65.00;;;;;;5051178;28;20041;-57
2023/05/14 08:48:32;;;;;;;16.98;14.52;;;18.50;65.30;;;;;;5034311;28;20045;-55
2023/05/14 08:50:59;;;;;;;15.15;13.73;;;18.50;65.50;;;;;;5053548;28;20064;-54
2023/05/14 08:53:26;;;;;;;17.58;13.02;;;18.60;64.80;;;;;;5050887;28;20036;-56
2023/05/14 08:55:56;;;;;;;15.15;13.55;;;18.70;64.70;;;;;;5052579;28;20047;-54
2023/05/14 08:58:25;;;;;;;15.23;13.82;;;18.80;64.70;;;;;;5041490;28;20053;-57
2023/05/14 09:00:53;;;;;;;15.30;13.73;;;18.90;65.20;;;;;;5030329;28;20120;-55
2023/05/14 09:03:20;;;;;;;16.05;14.38;;;19.00;65.50;;;;;;5051533;28;20103;-54
2023/05/14 09:05:50;;;;;;;14.20;12.80;;;19.10;64.50;;;;;;5044090;28;20102;-54
2023/05/14 09:08:17;;;;;;;14.82;13.32;;;19.30;64.30;;;;;;5050718;28;20068;-55
2023/05/14 09:10:43;;;;;;;15.07;13.73;;;19.40;63.40;;;;;;5052656;28;20053;-54
2023/05/14 09:13:10;;;;;;;13.80;12.40;;;19.50;62.70;;;;;;5051972;28;20052;-54
2023/05/14 09:15:38;;;;;;;15.20;13.55;;;19.60;62.70;;;;;;5050316;28;20040;-53
2023/05/14 09:18:05;;;;;;;15.45;13.85;;;19.70;63.10;;;;;;5040470;28;20048;-54
2023/05/14 09:20:32;;;;;;;15.00;13.57;;;19.80;62.80;;;;;;5050639;28;20036;-56
2023/05/14 09:23:01;;;;;;;14.18;12.82;;;19.90;62.00;;;;;;5051981;28;20056;-57
2023/05/14 09:25:31;;;;;;;14.77;13.30;;;20.00;62.20;;;;;;5032276;28;20069;-56
2023/05/14 09:27:58;;;;;;;15.20;13.38;;;20.10;61.80;;;;;;5033134;28;20088;-57
2023/05/14 09:30:26;;;;;;;18.33;13.43;;;20.10;61.30;;;;;;5051518;28;20036;-58
2023/05/14 09:32:53;;;;;;;13.75;12.55;;;20.20;61.10;;;;;;5033344;28;20077;-52
2023/05/14 09:35:22;;;;;;;13.73;11.82;;;20.20;61.50;;;;;;5050524;28;20041;-49
2023/05/14 09:37:53;;;;;;;14.38;12.77;;;20.30;61.70;;;;;;5047025;28;20037;-52
2023/05/14 09:40:22;;;;;;;15.50;13.97;;;20.40;61.50;;;;;;5051071;28;20045;-49
2023/05/14 09:42:50;;;;;;;14.63;13.15;;;20.50;61.00;;;;;;5023378;28;20041;-49
2023/05/14 09:45:17;;;;;;;12.90;11.70;;;20.60;61.40;;;;;;5050363;28;20460;-47
2023/05/14 09:47:43;;;;;;;14.60;13.15;;;20.70;61.50;;;;;;5050309;28;20395;-45
2023/05/14 09:50:11;;;;;;;13.45;12.20;;;20.80;61.20;;;;;;5047850;28;20052;-46
2023/05/14 09:52:39;;;;;;;13.40;11.63;;;20.90;60.60;;;;;;5046987;28;20049;-49
2023/05/14 09:55:06;;;;;;;14.70;12.00;;;21.00;59.80;;;;;;5048503;28;20068;-48
2023/05/14 09:57:34;;;;;;;12.98;11.65;;;21.10;59.30;;;;;;5049795;28;20048;-48
2023/05/14 10:00:00;;;;;;;13.85;11.57;;;21.10;58.90;;;;;;5048557;28;20063;-49
2023/05/14 10:02:39;;;;;;;12.57;11.38;;;21.10;58.40;;;;;;5049347;28;20045;-48
2023/05/14 10:05:07;;;;;;;12.55;11.35;;;21.20;57.40;;;;;;5049571;28;20048;-47
2023/05/14 10:07:47;;;;;;;12.30;11.07;;;21.20;57.10;;;;;;5049493;28;20049;-50
2023/05/14 10:10:22;;;;;;;12.45;10.85;;;21.20;57.40;;;;;;5049923;28;20052;-51
2023/05/14 10:12:57;;;;;;;12.82;10.55;;;21.20;57.50;;;;;;5049000;28;20045;-48
2023/05/14 10:15:48;;;;;;;9.88;8.10;;;21.20;57.30;;;;;;5049035;28;20033;-49
2023/05/14 10:18:21;;;;;;;7.82;6.43;;;21.20;56.00;;;;;;5047517;28;20064;-49
2023/05/14 10:21:02;;;;;;;10.00;9.02;;;21.20;54.50;;;;;;5049278;28;20409;-51
2023/05/14 10:23:29;;;;;;;7.60;6.95;;;21.20;54.30;;;;;;5049492;28;20060;-48
2023/05/14 10:25:57;;;;;;;8.18;7.32;;;21.20;53.60;;;;;;5049880;28;20506;-46
2023/05/14 10:28:24;;;;;;;8.25;7.03;;;21.20;53.60;;;;;;5049282;28;20455;-48
2023/05/14 10:30:50;;;;;;;7.35;6.57;;;21.20;53.40;;;;;;5028987;28;20428;-51
2023/05/14 10:33:17;;;;;;;8.38;6.70;;;21.20;53.10;;;;;;5047761;28;20041;-46
2023/05/14 10:36:00;;;;;;;7.32;6.25;;;21.20;53.00;;;;;;5049552;28;20404;-51
2023/05/14 10:38:28;;;;;;;8.98;6.30;;;21.20;52.70;;;;;;5049394;28;20076;-47
2023/05/14 10:41:02;;;;;;;8.85;6.72;;;21.30;52.90;;;;;;5048318;28;20063;-49
2023/05/14 10:43:30;;;;;;;9.13;7.25;;;21.30;51.30;;;;;;5048756;28;20037;-46
2023/05/14 10:45:58;;;;;;;9.18;6.22;;;21.30;52.50;;;;;;5048356;28;20734;-51
2023/05/14 10:48:25;;;;;;;7.40;6.07;;;21.30;52.10;;;;;;5046367;28;20051;-47
2023/05/14 10:50:54;;;;;;;7.43;5.80;;;21.40;53.60;;;;;;5049532;28;20580;-47
2023/05/14 10:53:33;;;;;;;8.52;5.97;;;21.50;52.40;;;;;;5047979;28;20049;-48
2023/05/14 10:56:06;;;;;;;7.13;6.35;;;21.60;51.80;;;;;;5043811;28;20072;-50
2023/05/14 10:58:45;;;;;;;7.75;6.82;;;21.70;51.30;;;;;;5044801;28;20064;-51
2023/05/14 11:01:12;;;;;;;10.00;8.88;;;21.80;52.40;;;;;;5050219;28;20079;-51
2023/05/14 11:03:45;;;;;;;8.55;7.63;;;21.80;52.30;;;;;;5048846;28;20720;-49
2023/05/14 11:06:14;;;;;;;9.57;7.95;;;21.90;51.60;;;;;;5050042;28;20284;-50
2023/05/14 11:08:45;;;;;;;9.65;8.10;;;22.00;51.80;;;;;;5048409;28;20114;-47
2023/05/14 11:11:11;;;;;;;9.38;8.45;;;22.10;51.40;;;;;;5022720;28;20053;-47
2023/05/14 11:13:39;;;;;;;8.98;8.18;;;22.20;51.50;;;;;;5047125;28;20528;-51
2023/05/14 11:16:07;;;;;;;8.88;7.55;;;22.30;51.80;;;;;;5047320;28;20440;-47
2023/05/14 11:19:10;;;;;;;14.45;8.23;;;22.40;50.50;;;;;;5048781;28;20094;-50
2023/05/14 11:21:42;;;;;;;5.20;4.70;;;22.50;51.20;;;;;;5050131;28;20041;-48
2023/05/14 11:24:09;;;;;;;6.18;4.57;;;22.70;49.60;;;;;;5049009;28;20043;-48
2023/05/14 11:26:36;;;;;;;5.72;4.32;;;22.80;50.00;;;;;;5049106;28;20115;-51
2023/05/14 11:29:04;;;;;;;5.82;4.47;;;22.90;49.90;;;;;;5049339;28;20068;-49
2023/05/14 11:31:34;;;;;;;6.07;5.57;;;23.10;49.30;;;;;;5032642;28;20048;-50
2023/05/14 11:34:03;;;;;;;6.47;5.70;;;23.20;49.50;;;;;;5048357;28;20048;-48
2023/05/14 11:36:30;;;;;;;5.72;5.22;;;23.30;48.90;;;;;;5049055;28;20090;-46
2023/05/14 11:38:59;;;;;;;6.70;5.70;;;23.50;47.30;;;;;;5049151;28;20033;-50
2023/05/14 11:41:29;;;;;;;7.97;7.25;;;23.60;48.40;;;;;;5050908;28;20044;-50
2023/05/14 11:43:57;;;;;;;6.88;5.95;;;23.80;47.80;;;;;;5039736;28;20037;-47
2023/05/14 11:46:24;;;;;;;6.07;5.35;;;23.90;48.10;;;;;;5048095;28;20045;-46
2023/05/14 11:48:51;;;;;;;6.07;5.40;;;24.00;46.30;;;;;;5048554;28;20589;-51
2023/05/14 11:51:22;;;;;;;5.82;5.35;;;24.10;45.50;;;;;;5050951;28;20073;-49
2023/05/14 11:53:49;;;;;;;9.90;6.07;;;24.20;46.80;;;;;;5048386;28;20036;-51
2023/05/14 11:56:15;;;;;;;5.85;5.20;;;24.30;45.60;;;;;;5047358;28;20056;-48
2023/05/14 11:58:47;;;;;;;7.32;4.57;;;24.30;45.30;;;;;;5047907;28;20048;-48
2023/05/14 12:01:16;;;;;;;4.25;3.95;;;24.50;44.40;;;;;;5030970;28;20620;-49
2023/05/14 12:03:43;;;;;;;4.90;4.32;;;24.50;44.10;;;;;;5049144;28;20043;-49
2023/05/14 12:06:10;;;;;;;4.10;3.40;;;24.70;43.20;;;;;;5051856;28;20049;-52
2023/05/14 12:08:36;;;;;;;5.68;5.15;;;24.70;42.80;;;;;;5049561;28;20045;-47
2023/05/14 12:11:03;;;;;;;5.25;4.60;;;24.80;42.50;;;;;;5046044;28;20110;-50
2023/05/14 12:13:31;;;;;;;5.57;4.90;;;24.80;42.10;;;;;;5052309;28;20052;-51
2023/05/14 12:16:00;;;;;;;5.13;4.72;;;24.90;41.60;;;;;;5047818;28;20052;-51
2023/05/14 12:18:31;;;;;;;5.18;4.68;;;24.90;43.00;;;;;;5051817;28;20448;-51
2023/05/14 12:21:02;;;;;;;3.90;3.50;;;25.00;41.60;;;;;;5044252;28;20498;-51
2023/05/14 12:23:30;;;;;;;3.63;3.13;;;25.00;40.70;;;;;;5051196;28;20048;-49
2023/05/14 12:26:08;;;;;;;4.88;3.20;;;25.10;40.00;;;;;;5051923;28;20045;-50
2023/05/14 12:28:37;;;;;;;8.90;3.38;;;25.10;39.90;;;;;;5050323;28;20528;-51
2023/05/14 12:31:06;;;;;;;4.80;3.15;;;25.20;40.30;;;;;;5053729;28;20127;-49
2023/05/14 12:33:33;;;;;;;4.05;3.72;;;25.20;40.30;;;;;;5049731;28;20043;-47
2023/05/14 12:36:02;;;;;;;3.38;3.05;;;25.30;40.80;;;;;;5046366;28;20044;-50
2023/05/14 12:38:32;;;;;;;4.05;3.58;;;25.40;40.60;;;;;;5033069;28;20775;-46
2023/05/14 12:40:58;;;;;;;3.60;3.28;;;25.50;40.60;;;;;;5045250;28;20056;-49
2023/05/14 12:43:30;;;;;;;3.30;3.00;;;25.60;39.30;;;;;;5032841;28;20045;-49